(Default Airport = EGHI - Southampton International)

METAR = EGHI 201620Z 16009KT 120V210 9999 FEW032 20/13 Q1013

STATION........ EGHI
OBSERVED....... Fri Jul 20, 17:20 BST
NOW............ Fri Jul 20, 17:31 BST
AGE............ 11 min ago
WIND........... SSE at 10 mph
VISIBILITY..... 16 miles
CLOUDS......... partly cloudy
TEMP........... 68°F (20°C)
DEWPT.......... 55°F (13°C)
HUMIDITY....... 64%
BAROMETER...... 1013 hPa (29.91 in Hg)


    Get Weather Info from Airport: